createdAt,value
2022-10-03T00:04:39.980Z,100077.88
2022-10-03T00:09:41.491Z,100076.22
2022-10-03T00:15:04.618Z,100078.13
2022-10-03T00:20:37.564Z,100075.00
2022-10-03T00:26:40.471Z,100076.69
2022-10-03T00:32:07.983Z,100082.44
2022-10-03T00:37:36.413Z,100072.66
2022-10-03T00:43:12.891Z,100084.31
2022-10-03T00:48:43.315Z,100085.06
2022-10-03T00:54:02.396Z,100073.66
2022-10-03T00:59:14.795Z,100086.03
2022-10-03T01:04:16.337Z,100087.28
2022-10-03T01:09:41.963Z,100077.78
2022-10-03T01:14:59.246Z,100087.88
2022-10-03T01:20:12.866Z,100084.50
2022-10-03T01:25:50.578Z,100079.44
2022-10-03T01:31:02.695Z,100082.28
2022-10-03T01:36:19.486Z,100086.09
2022-10-03T01:41:40.031Z,100086.44
2022-10-03T01:47:09.895Z,100094.41
2022-10-03T01:52:14.061Z,100099.72
2022-10-03T01:57:15.580Z,100095.44
2022-10-03T02:02:41.931Z,100096.13
2022-10-03T02:07:55.279Z,100092.13
2022-10-03T02:13:22.422Z,100100.69
2022-10-03T02:18:29.236Z,100094.31
2022-10-03T02:23:31.757Z,100113.69
2022-10-03T02:28:55.368Z,100112.56
2022-10-03T02:34:25.799Z,100116.50
2022-10-03T02:39:39.472Z,100114.03
2022-10-03T02:44:57.968Z,100111.97
2022-10-03T02:50:27.560Z,100130.31
2022-10-03T02:55:47.296Z,100126.19
2022-10-03T03:00:57.700Z,100139.84
2022-10-03T03:06:21.240Z,100131.50
2022-10-03T03:11:47.631Z,100136.22
2022-10-03T03:17:00.988Z,100135.75
2022-10-03T03:22:25.433Z,100146.09
2022-10-03T03:28:10.503Z,100136.22
2022-10-03T03:33:25.851Z,100147.47
2022-10-03T03:38:31.848Z,100151.22
2022-10-03T03:43:42.441Z,100151.41
2022-10-03T03:49:00.087Z,100144.97
2022-10-03T03:54:21.216Z,100144.72
2022-10-03T03:59:46.245Z,100157.06
2022-10-03T04:05:12.791Z,100149.81
2022-10-03T04:10:31.228Z,100156.38
2022-10-03T04:16:05.592Z,100169.38
2022-10-03T04:21:31.837Z,100160.53
2022-10-03T04:26:41.760Z,100167.34
2022-10-03T04:31:57.651Z,100153.22
2022-10-03T04:37:05.372Z,100156.53
2022-10-03T04:42:32.173Z,100144.34
2022-10-03T04:47:45.257Z,100146.78
2022-10-03T04:53:12.117Z,100158.94
2022-10-03T04:58:43.286Z,100152.97
2022-10-03T05:04:22.142Z,100150.72
2022-10-03T05:09:42.782Z,100157.94
2022-10-03T05:15:02.655Z,100156.06
2022-10-03T05:20:28.294Z,100153.03
2022-10-03T05:25:44.116Z,100159.03
2022-10-03T05:30:54.262Z,100170.28
2022-10-03T05:36:07.422Z,100168.06
2022-10-03T05:41:27.055Z,100168.34
2022-10-03T05:46:39.856Z,100157.13
2022-10-03T05:51:51.751Z,100167.31
2022-10-03T05:57:27.174Z,100176.06
2022-10-03T06:02:41.033Z,100162.06
2022-10-03T06:07:52.698Z,100179.06
2022-10-03T06:13:03.307Z,100178.38
2022-10-03T06:18:33.730Z,100190.91
2022-10-03T06:23:44.467Z,100191.38
2022-10-03T06:29:22.812Z,100196.06
2022-10-03T06:34:36.340Z,100183.97
2022-10-03T06:40:14.979Z,100188.00
2022-10-03T06:45:36.885Z,100202.94
2022-10-03T06:50:53.571Z,100209.00
2022-10-03T06:56:49.077Z,100213.44
2022-10-03T07:01:54.430Z,100218.00
2022-10-03T07:07:41.357Z,100221.81
2022-10-03T07:13:01.385Z,100209.81
2022-10-03T07:18:41.546Z,100219.84
2022-10-03T07:24:25.806Z,100206.75
2022-10-03T07:30:11.772Z,100226.72
2022-10-03T07:36:09.316Z,100222.69
2022-10-03T07:41:17.049Z,100247.59
2022-10-03T07:46:37.239Z,100249.59
2022-10-03T07:52:12.656Z,100248.13
2022-10-03T07:57:38.303Z,100256.84
2022-10-03T08:02:51.976Z,100259.06
2022-10-03T08:08:09.794Z,100271.00
2022-10-03T08:13:29.377Z,100273.06
2022-10-03T08:18:57.282Z,100272.78
2022-10-03T08:24:21.089Z,100273.41
2022-10-03T08:29:25.369Z,100267.19
2022-10-03T08:35:02.041Z,100276.19
2022-10-03T08:40:38.073Z,100275.16
2022-10-03T08:45:45.819Z,100288.06
2022-10-03T08:50:59.894Z,100284.81
2022-10-03T08:56:13.541Z,100300.03
2022-10-03T09:01:47.457Z,100291.19
2022-10-03T09:07:16.706Z,100304.75
2022-10-03T09:13:09.576Z,100288.00
2022-10-03T09:18:22.904Z,100299.00
2022-10-03T09:23:54.876Z,100291.97
2022-10-03T09:29:06.383Z,100294.41
2022-10-03T09:34:23.532Z,100307.34
2022-10-03T09:40:02.209Z,100305.88
2022-10-03T09:45:28.359Z,100320.00
2022-10-03T09:51:07.781Z,100308.53
2022-10-03T09:56:47.747Z,100318.91
2022-10-03T10:02:17.963Z,100323.44
2022-10-03T10:07:57.132Z,100335.38
2022-10-03T10:13:20.262Z,100326.97
2022-10-03T10:18:43.315Z,100319.72
2022-10-03T10:24:22.692Z,100316.69
2022-10-03T10:29:51.917Z,100322.75
2022-10-03T10:35:15.400Z,100343.81
2022-10-03T10:40:36.385Z,100321.22
2022-10-03T10:46:12.879Z,100325.16
2022-10-03T10:51:44.989Z,100324.97
2022-10-03T10:57:07.965Z,100329.28
2022-10-03T11:02:18.653Z,100331.41
2022-10-03T11:07:25.853Z,100336.34
2022-10-03T11:13:00.845Z,100344.09
2022-10-03T11:18:27.168Z,100334.16
2022-10-03T11:23:53.638Z,100343.06
2022-10-03T11:29:29.011Z,100343.75
2022-10-03T11:34:39.532Z,100350.72
2022-10-03T11:39:56.066Z,100362.03
2022-10-03T11:45:03.673Z,100351.72
2022-10-03T11:50:23.330Z,100347.72
2022-10-03T11:55:38.478Z,100369.97
2022-10-03T12:00:43.100Z,100366.38
2022-10-03T12:06:14.188Z,100357.41
2022-10-03T12:11:22.211Z,100369.59
2022-10-03T12:16:50.419Z,100365.03
2022-10-03T12:21:57.878Z,100339.19
2022-10-03T12:27:10.314Z,100352.72
2022-10-03T12:32:31.801Z,100363.50
2022-10-03T12:37:42.518Z,100361.50
2022-10-03T12:43:03.283Z,100363.41
2022-10-03T12:48:32.712Z,100362.44
2022-10-03T12:53:56.992Z,100372.88
2022-10-03T12:59:30.176Z,100375.88
2022-10-03T13:04:47.688Z,100366.25
2022-10-03T13:10:18.342Z,100369.88
2022-10-03T13:15:39.064Z,100360.72
2022-10-03T13:20:50.224Z,100375.53
2022-10-03T13:26:17.949Z,100380.22
2022-10-03T13:31:34.891Z,100376.84
2022-10-03T13:36:46.358Z,100383.41
2022-10-03T13:42:10.537Z,100382.19
2022-10-03T13:47:23.330Z,100379.59
2022-10-03T13:52:37.093Z,100383.47
2022-10-03T13:57:54.119Z,100383.44
2022-10-03T14:03:01.765Z,100379.75
2022-10-03T14:08:06.433Z,100383.56
2022-10-03T14:13:24.275Z,100383.94
2022-10-03T14:18:35.617Z,100384.75
2022-10-03T14:24:18.496Z,100388.16
2022-10-03T14:29:55.429Z,100393.16
2022-10-03T14:35:15.430Z,100397.03
2022-10-03T14:40:18.759Z,100401.34
2022-10-03T14:45:27.719Z,100396.97
2022-10-03T14:50:31.402Z,100400.13
2022-10-03T14:55:42.944Z,100396.84
2022-10-03T15:00:46.856Z,100407.22
2022-10-03T15:05:58.739Z,100395.50
2022-10-03T15:11:00.991Z,100394.81
2022-10-03T15:16:02.792Z,100401.94
2022-10-03T15:21:05.926Z,100400.31
2022-10-03T15:26:18.836Z,100392.91
2022-10-03T15:31:34.231Z,100405.53
2022-10-03T15:36:42.136Z,100408.28
2022-10-03T15:41:52.724Z,100402.69
2022-10-03T15:47:01.952Z,100397.94
2022-10-03T15:52:40.247Z,100404.56
2022-10-03T15:57:48.064Z,100406.53
2022-10-03T16:02:56.174Z,100403.84
2022-10-03T16:08:09.311Z,100429.06
2022-10-03T16:13:25.821Z,100436.16
2022-10-03T16:18:41.166Z,100443.09
2022-10-03T16:23:45.919Z,100451.44
2022-10-03T16:28:58.182Z,100448.31
2022-10-03T16:34:04.435Z,100445.78
2022-10-03T16:39:14.591Z,100445.34
2022-10-03T16:44:25.178Z,100447.81
2022-10-03T16:49:45.422Z,100444.50
2022-10-03T16:54:48.147Z,100443.75
2022-10-03T16:59:54.239Z,100432.66
2022-10-03T17:05:07.148Z,100443.81
2022-10-03T17:10:28.689Z,100441.28
2022-10-03T17:15:35.189Z,100424.53
2022-10-03T17:20:55.295Z,100447.03
2022-10-03T17:26:05.245Z,100450.59
2022-10-03T17:31:17.246Z,100454.09
2022-10-03T17:36:46.503Z,100445.34
2022-10-03T17:42:03.080Z,100443.16
2022-10-03T17:47:19.332Z,100447.56
2022-10-03T17:52:23.660Z,100453.56
2022-10-03T17:57:46.181Z,100441.19
2022-10-03T18:03:09.528Z,100441.81
2022-10-03T18:08:23.585Z,100437.53
2022-10-03T18:13:35.137Z,100437.28
2022-10-03T18:19:06.123Z,100444.44
2022-10-03T18:24:30.035Z,100441.44
2022-10-03T18:29:40.162Z,100445.16
2022-10-03T18:34:59.858Z,100454.88
2022-10-03T18:40:05.725Z,100454.47
2022-10-03T18:45:18.020Z,100458.66
2022-10-03T18:50:27.446Z,100450.53
2022-10-03T18:55:46.001Z,100454.44
2022-10-03T19:01:12.916Z,100443.84
2022-10-03T19:06:32.132Z,100451.72
2022-10-03T19:11:53.813Z,100456.53
2022-10-03T19:17:04.236Z,100453.97
2022-10-03T19:22:07.195Z,100443.00
2022-10-03T19:27:17.573Z,100437.66
2022-10-03T19:32:45.874Z,100441.88
2022-10-03T19:38:04.476Z,100451.81
2022-10-03T19:43:41.785Z,100443.16
2022-10-03T19:49:13.391Z,100454.84
2022-10-03T19:54:43.675Z,100454.94
2022-10-03T19:59:53.056Z,100452.47
2022-10-03T20:04:57.291Z,100449.66
2022-10-03T20:10:10.732Z,100456.69
2022-10-03T20:15:21.897Z,100440.44
2022-10-03T20:20:25.124Z,100457.88
2022-10-03T20:25:38.511Z,100452.72
2022-10-03T20:30:50.171Z,100443.00
2022-10-03T20:36:23.303Z,100447.22
2022-10-03T20:42:10.037Z,100446.81
2022-10-03T20:47:40.857Z,100441.63
2022-10-03T20:52:42.670Z,100452.72
2022-10-03T20:58:04.378Z,100446.59
2022-10-03T21:03:15.501Z,100445.63
2022-10-03T21:08:25.549Z,100449.66
2022-10-03T21:13:38.282Z,100454.44
2022-10-03T21:18:44.829Z,100451.03
2022-10-03T21:24:15.563Z,100450.25
2022-10-03T21:29:28.900Z,100460.06
2022-10-03T21:34:39.969Z,100464.66
2022-10-03T21:40:04.156Z,100458.38
2022-10-03T21:45:38.686Z,100457.13
2022-10-03T21:50:53.185Z,100458.44
2022-10-03T21:56:06.546Z,100454.63
2022-10-03T22:01:28.885Z,100451.13
2022-10-03T22:06:51.002Z,100446.59
2022-10-03T22:11:58.323Z,100448.91
2022-10-03T22:16:59.806Z,100448.56
2022-10-03T22:22:30.504Z,100443.16
2022-10-03T22:27:42.939Z,100449.31
2022-10-03T22:33:09.143Z,100447.22
2022-10-03T22:38:11.052Z,100457.44
2022-10-03T22:43:14.694Z,100449.94
2022-10-03T22:48:28.198Z,100437.28
2022-10-03T22:53:34.277Z,100449.19
2022-10-03T22:58:35.936Z,100441.81
2022-10-03T23:03:37.667Z,100453.75
2022-10-03T23:09:18.323Z,100444.09
2022-10-03T23:14:31.209Z,100446.59
2022-10-03T23:19:40.343Z,100451.78
2022-10-03T23:24:47.749Z,100443.84
2022-10-03T23:30:11.841Z,100434.03
2022-10-03T23:35:20.295Z,100440.19
2022-10-03T23:40:44.413Z,100447.84
2022-10-03T23:45:47.644Z,100451.31
2022-10-03T23:51:06.496Z,100443.75
2022-10-03T23:56:28.309Z,100439.69
